sensor_id;sensor_type;location;lat;lon;timestamp;temperature;humidity
51855;DHT22;37895;53.240;6.572;2023-04-15T00:00:16;7.20;90.90
51855;DHT22;37895;53.240;6.572;2023-04-15T00:02:42;7.10;90.90
51855;DHT22;37895;53.240;6.572;2023-04-15T00:05:08;7.10;90.90
51855;DHT22;37895;53.240;6.572;2023-04-15T00:07:35;7.10;90.90
51855;DHT22;37895;53.240;6.572;2023-04-15T00:10:00;7.10;90.90
51855;DHT22;37895;53.240;6.572;2023-04-15T00:12:27;7.40;91.10
51855;DHT22;37895;53.240;6.572;2023-04-15T00:14:52;7.00;91.00
51855;DHT22;37895;53.240;6.572;2023-04-15T00:17:19;7.00;91.10
51855;DHT22;37895;53.240;6.572;2023-04-15T00:19:44;7.00;91.10
51855;DHT22;37895;53.240;6.572;2023-04-15T00:22:10;6.90;91.20
51855;DHT22;37895;53.240;6.572;2023-04-15T00:24:37;6.90;91.20
51855;DHT22;37895;53.240;6.572;2023-04-15T00:27:02;6.90;91.30
51855;DHT22;37895;53.240;6.572;2023-04-15T00:29:28;6.80;91.30
51855;DHT22;37895;53.240;6.572;2023-04-15T00:31:55;6.80;91.40
51855;DHT22;37895;53.240;6.572;2023-04-15T00:34:21;6.80;91.50
51855;DHT22;37895;53.240;6.572;2023-04-15T00:36:47;6.80;91.50
51855;DHT22;37895;53.240;6.572;2023-04-15T00:39:13;6.80;91.60
51855;DHT22;37895;53.240;6.572;2023-04-15T00:41:41;6.70;91.70
51855;DHT22;37895;53.240;6.572;2023-04-15T00:44:07;6.60;91.80
51855;DHT22;37895;53.240;6.572;2023-04-15T00:46:37;6.60;91.80
51855;DHT22;37895;53.240;6.572;2023-04-15T00:49:04;6.60;91.90
51855;DHT22;37895;53.240;6.572;2023-04-15T00:51:31;6.60;91.90
51855;DHT22;37895;53.240;6.572;2023-04-15T00:53:58;6.60;92.00
51855;DHT22;37895;53.240;6.572;2023-04-15T00:56:24;6.50;92.00
51855;DHT22;37895;53.240;6.572;2023-04-15T00:58:51;6.60;92.10
51855;DHT22;37895;53.240;6.572;2023-04-15T01:01:21;6.50;92.00
51855;DHT22;37895;53.240;6.572;2023-04-15T01:03:49;6.70;92.00
51855;DHT22;37895;53.240;6.572;2023-04-15T01:06:15;6.50;92.10
51855;DHT22;37895;53.240;6.572;2023-04-15T01:08:41;6.50;92.10
51855;DHT22;37895;53.240;6.572;2023-04-15T01:11:07;6.50;92.20
51855;DHT22;37895;53.240;6.572;2023-04-15T01:13:34;6.40;92.20
51855;DHT22;37895;53.240;6.572;2023-04-15T01:16:01;6.40;92.40
51855;DHT22;37895;53.240;6.572;2023-04-15T01:18:27;6.40;92.60
51855;DHT22;37895;53.240;6.572;2023-04-15T01:20:53;6.30;92.30
51855;DHT22;37895;53.240;6.572;2023-04-15T01:23:20;6.30;92.30
51855;DHT22;37895;53.240;6.572;2023-04-15T01:25:49;6.30;92.70
51855;DHT22;37895;53.240;6.572;2023-04-15T01:28:16;6.20;92.50
51855;DHT22;37895;53.240;6.572;2023-04-15T01:30:41;6.20;92.50
51855;DHT22;37895;53.240;6.572;2023-04-15T01:33:07;6.20;92.50
51855;DHT22;37895;53.240;6.572;2023-04-15T01:35:33;6.20;92.60
51855;DHT22;37895;53.240;6.572;2023-04-15T01:38:05;6.10;92.60
51855;DHT22;37895;53.240;6.572;2023-04-15T01:40:31;6.10;92.80
51855;DHT22;37895;53.240;6.572;2023-04-15T01:42:57;6.10;92.70
51855;DHT22;37895;53.240;6.572;2023-04-15T01:45:23;6.10;92.80
51855;DHT22;37895;53.240;6.572;2023-04-15T01:47:48;6.10;92.80
51855;DHT22;37895;53.240;6.572;2023-04-15T01:50:14;6.00;92.90
51855;DHT22;37895;53.240;6.572;2023-04-15T01:52:40;6.00;92.90
51855;DHT22;37895;53.240;6.572;2023-04-15T01:55:07;5.90;92.90
51855;DHT22;37895;53.240;6.572;2023-04-15T01:57:33;6.00;93.00
51855;DHT22;37895;53.240;6.572;2023-04-15T01:59:59;5.90;93.00
51855;DHT22;37895;53.240;6.572;2023-04-15T02:02:25;6.00;93.10
51855;DHT22;37895;53.240;6.572;2023-04-15T02:04:50;5.80;93.10
51855;DHT22;37895;53.240;6.572;2023-04-15T02:07:16;5.80;93.10
51855;DHT22;37895;53.240;6.572;2023-04-15T02:09:42;5.80;93.10
51855;DHT22;37895;53.240;6.572;2023-04-15T02:12:08;5.80;93.30
51855;DHT22;37895;53.240;6.572;2023-04-15T02:14:34;5.70;93.30
51855;DHT22;37895;53.240;6.572;2023-04-15T02:17:00;5.70;93.40
51855;DHT22;37895;53.240;6.572;2023-04-15T02:19:32;5.70;93.40
51855;DHT22;37895;53.240;6.572;2023-04-15T02:21:58;5.70;93.40
51855;DHT22;37895;53.240;6.572;2023-04-15T02:24:25;5.70;93.50
51855;DHT22;37895;53.240;6.572;2023-04-15T02:26:50;5.80;93.60
51855;DHT22;37895;53.240;6.572;2023-04-15T02:29:16;5.70;93.70
51855;DHT22;37895;53.240;6.572;2023-04-15T02:31:41;5.60;93.70
51855;DHT22;37895;53.240;6.572;2023-04-15T02:34:08;5.70;93.80
51855;DHT22;37895;53.240;6.572;2023-04-15T02:36:33;5.60;93.70
51855;DHT22;37895;53.240;6.572;2023-04-15T02:38:59;5.60;93.70
51855;DHT22;37895;53.240;6.572;2023-04-15T02:41:25;5.60;93.90
51855;DHT22;37895;53.240;6.572;2023-04-15T02:43:53;5.60;94.00
51855;DHT22;37895;53.240;6.572;2023-04-15T02:46:18;5.50;94.00
51855;DHT22;37895;53.240;6.572;2023-04-15T02:48:44;5.50;93.90
51855;DHT22;37895;53.240;6.572;2023-04-15T02:51:14;5.50;93.90
51855;DHT22;37895;53.240;6.572;2023-04-15T02:53:41;5.50;94.10
51855;DHT22;37895;53.240;6.572;2023-04-15T02:56:07;5.50;94.20
51855;DHT22;37895;53.240;6.572;2023-04-15T02:58:34;5.50;94.20
51855;DHT22;37895;53.240;6.572;2023-04-15T03:01:00;5.50;94.20
51855;DHT22;37895;53.240;6.572;2023-04-15T03:03:26;5.60;94.30
51855;DHT22;37895;53.240;6.572;2023-04-15T03:05:53;5.40;94.20
51855;DHT22;37895;53.240;6.572;2023-04-15T03:08:18;5.40;94.20
51855;DHT22;37895;53.240;6.572;2023-04-15T03:10:45;5.40;94.30
51855;DHT22;37895;53.240;6.572;2023-04-15T03:13:12;5.40;94.30
51855;DHT22;37895;53.240;6.572;2023-04-15T03:15:37;5.40;94.40
51855;DHT22;37895;53.240;6.572;2023-04-15T03:18:03;5.40;94.40
51855;DHT22;37895;53.240;6.572;2023-04-15T03:20:28;5.30;94.40
51855;DHT22;37895;53.240;6.572;2023-04-15T03:22:54;5.30;94.40
51855;DHT22;37895;53.240;6.572;2023-04-15T03:25:20;5.30;94.40
51855;DHT22;37895;53.240;6.572;2023-04-15T03:27:45;5.60;94.50
51855;DHT22;37895;53.240;6.572;2023-04-15T03:30:12;5.30;94.50
51855;DHT22;37895;53.240;6.572;2023-04-15T03:32:38;5.30;94.50
51855;DHT22;37895;53.240;6.572;2023-04-15T03:35:04;5.30;94.50
51855;DHT22;37895;53.240;6.572;2023-04-15T03:37:29;5.20;94.50
51855;DHT22;37895;53.240;6.572;2023-04-15T03:39:55;5.20;94.50
51855;DHT22;37895;53.240;6.572;2023-04-15T03:42:21;5.40;94.70
51855;DHT22;37895;53.240;6.572;2023-04-15T03:44:46;5.30;94.70
51855;DHT22;37895;53.240;6.572;2023-04-15T03:47:12;5.20;94.70
51855;DHT22;37895;53.240;6.572;2023-04-15T03:49:37;5.20;94.70
51855;DHT22;37895;53.240;6.572;2023-04-15T03:52:03;5.20;94.80
51855;DHT22;37895;53.240;6.572;2023-04-15T03:54:29;5.10;94.80
51855;DHT22;37895;53.240;6.572;2023-04-15T03:56:54;5.10;94.90
51855;DHT22;37895;53.240;6.572;2023-04-15T03:59:21;5.30;94.90
51855;DHT22;37895;53.240;6.572;2023-04-15T04:01:46;5.60;95.00
51855;DHT22;37895;53.240;6.572;2023-04-15T04:04:12;5.10;94.90
51855;DHT22;37895;53.240;6.572;2023-04-15T04:06:38;5.00;94.90
51855;DHT22;37895;53.240;6.572;2023-04-15T04:09:03;5.00;95.00
51855;DHT22;37895;53.240;6.572;2023-04-15T04:11:29;5.00;95.10
51855;DHT22;37895;53.240;6.572;2023-04-15T04:13:55;4.90;95.10
51855;DHT22;37895;53.240;6.572;2023-04-15T04:16:20;4.90;95.20
51855;DHT22;37895;53.240;6.572;2023-04-15T04:18:46;4.80;95.20
51855;DHT22;37895;53.240;6.572;2023-04-15T04:21:12;4.80;95.30
51855;DHT22;37895;53.240;6.572;2023-04-15T04:23:37;4.80;95.30
51855;DHT22;37895;53.240;6.572;2023-04-15T04:26:03;5.20;95.60
51855;DHT22;37895;53.240;6.572;2023-04-15T04:28:29;4.70;95.20
51855;DHT22;37895;53.240;6.572;2023-04-15T04:30:55;4.70;95.00
51855;DHT22;37895;53.240;6.572;2023-04-15T04:33:20;4.70;95.10
51855;DHT22;37895;53.240;6.572;2023-04-15T04:35:46;4.60;95.10
51855;DHT22;37895;53.240;6.572;2023-04-15T04:38:12;4.50;95.00
51855;DHT22;37895;53.240;6.572;2023-04-15T04:40:37;4.50;95.10
51855;DHT22;37895;53.240;6.572;2023-04-15T04:43:04;4.40;95.20
51855;DHT22;37895;53.240;6.572;2023-04-15T04:45:29;4.40;95.30
51855;DHT22;37895;53.240;6.572;2023-04-15T04:47:55;4.30;95.30
51855;DHT22;37895;53.240;6.572;2023-04-15T04:50:21;4.70;95.50
51855;DHT22;37895;53.240;6.572;2023-04-15T04:52:46;4.30;95.40
51855;DHT22;37895;53.240;6.572;2023-04-15T04:55:12;4.40;95.40
51855;DHT22;37895;53.240;6.572;2023-04-15T04:57:38;4.20;95.50
51855;DHT22;37895;53.240;6.572;2023-04-15T05:00:07;4.20;95.50
51855;DHT22;37895;53.240;6.572;2023-04-15T05:02:33;4.10;95.50
51855;DHT22;37895;53.240;6.572;2023-04-15T05:04:59;4.10;95.60
51855;DHT22;37895;53.240;6.572;2023-04-15T05:07:25;4.20;96.00
51855;DHT22;37895;53.240;6.572;2023-04-15T05:09:51;4.20;95.90
51855;DHT22;37895;53.240;6.572;2023-04-15T05:12:16;4.20;96.00
51855;DHT22;37895;53.240;6.572;2023-04-15T05:14:43;4.10;95.90
51855;DHT22;37895;53.240;6.572;2023-04-15T05:17:08;4.10;95.90
51855;DHT22;37895;53.240;6.572;2023-04-15T05:19:35;4.10;96.00
51855;DHT22;37895;53.240;6.572;2023-04-15T05:22:01;4.00;96.20
51855;DHT22;37895;53.240;6.572;2023-04-15T05:24:26;4.00;96.30
51855;DHT22;37895;53.240;6.572;2023-04-15T05:26:52;4.10;96.40
51855;DHT22;37895;53.240;6.572;2023-04-15T05:29:17;4.10;96.60
51855;DHT22;37895;53.240;6.572;2023-04-15T05:31:43;4.20;96.70
51855;DHT22;37895;53.240;6.572;2023-04-15T05:34:09;4.30;97.10
51855;DHT22;37895;53.240;6.572;2023-04-15T05:36:36;4.30;97.00
51855;DHT22;37895;53.240;6.572;2023-04-15T05:39:02;4.40;96.90
51855;DHT22;37895;53.240;6.572;2023-04-15T05:41:28;4.50;97.10
51855;DHT22;37895;53.240;6.572;2023-04-15T05:43:54;4.60;97.00
51855;DHT22;37895;53.240;6.572;2023-04-15T05:46:20;4.60;96.90
51855;DHT22;37895;53.240;6.572;2023-04-15T05:48:47;4.70;96.90
51855;DHT22;37895;53.240;6.572;2023-04-15T05:51:12;4.80;96.80
51855;DHT22;37895;53.240;6.572;2023-04-15T05:53:38;4.80;96.80
51855;DHT22;37895;53.240;6.572;2023-04-15T05:56:06;4.80;97.00
51855;DHT22;37895;53.240;6.572;2023-04-15T05:58:32;4.90;96.90
51855;DHT22;37895;53.240;6.572;2023-04-15T06:00:57;4.90;97.00
51855;DHT22;37895;53.240;6.572;2023-04-15T06:03:23;5.10;97.20
51855;DHT22;37895;53.240;6.572;2023-04-15T06:05:48;5.00;97.20
51855;DHT22;37895;53.240;6.572;2023-04-15T06:08:14;5.10;97.30
51855;DHT22;37895;53.240;6.572;2023-04-15T06:10:40;5.20;97.40
51855;DHT22;37895;53.240;6.572;2023-04-15T06:13:06;5.30;97.70
51855;DHT22;37895;53.240;6.572;2023-04-15T06:15:32;5.30;97.90
51855;DHT22;37895;53.240;6.572;2023-04-15T06:17:58;5.40;97.70
51855;DHT22;37895;53.240;6.572;2023-04-15T06:20:23;5.50;97.90
51855;DHT22;37895;53.240;6.572;2023-04-15T06:22:49;5.70;98.10
51855;DHT22;37895;53.240;6.572;2023-04-15T06:28:43;5.90;98.30
51855;DHT22;37895;53.240;6.572;2023-04-15T06:31:08;6.00;98.40
51855;DHT22;37895;53.240;6.572;2023-04-15T06:33:34;6.10;98.40
51855;DHT22;37895;53.240;6.572;2023-04-15T06:36:00;6.30;98.50
51855;DHT22;37895;53.240;6.572;2023-04-15T06:38:25;6.40;98.40
51855;DHT22;37895;53.240;6.572;2023-04-15T06:40:51;6.60;98.40
51855;DHT22;37895;53.240;6.572;2023-04-15T06:43:17;6.70;98.50
51855;DHT22;37895;53.240;6.572;2023-04-15T06:45:42;6.80;98.60
51855;DHT22;37895;53.240;6.572;2023-04-15T06:48:08;6.90;98.60
51855;DHT22;37895;53.240;6.572;2023-04-15T06:50:34;7.00;98.60
51855;DHT22;37895;53.240;6.572;2023-04-15T06:53:00;7.20;98.70
51855;DHT22;37895;53.240;6.572;2023-04-15T06:55:25;7.30;98.70
51855;DHT22;37895;53.240;6.572;2023-04-15T06:57:51;7.40;98.70
51855;DHT22;37895;53.240;6.572;2023-04-15T07:00:17;7.50;98.80
51855;DHT22;37895;53.240;6.572;2023-04-15T07:02:43;7.60;98.80
51855;DHT22;37895;53.240;6.572;2023-04-15T07:05:09;7.70;98.70
51855;DHT22;37895;53.240;6.572;2023-04-15T07:07:35;7.80;98.70
51855;DHT22;37895;53.240;6.572;2023-04-15T07:10:01;7.90;98.60
51855;DHT22;37895;53.240;6.572;2023-04-15T07:12:27;7.90;98.20
51855;DHT22;37895;53.240;6.572;2023-04-15T07:14:53;8.00;97.90
51855;DHT22;37895;53.240;6.572;2023-04-15T07:17:18;8.00;97.60
51855;DHT22;37895;53.240;6.572;2023-04-15T07:19:44;8.10;97.40
51855;DHT22;37895;53.240;6.572;2023-04-15T07:22:09;8.10;97.30
51855;DHT22;37895;53.240;6.572;2023-04-15T07:24:35;8.20;97.20
51855;DHT22;37895;53.240;6.572;2023-04-15T07:27:01;8.30;96.90
51855;DHT22;37895;53.240;6.572;2023-04-15T07:29:26;8.30;96.20
51855;DHT22;37895;53.240;6.572;2023-04-15T07:31:52;8.40;96.30
51855;DHT22;37895;53.240;6.572;2023-04-15T07:34:18;8.40;96.30
51855;DHT22;37895;53.240;6.572;2023-04-15T07:36:45;8.40;96.10
51855;DHT22;37895;53.240;6.572;2023-04-15T07:39:14;8.40;96.10
51855;DHT22;37895;53.240;6.572;2023-04-15T07:41:41;8.80;96.00
51855;DHT22;37895;53.240;6.572;2023-04-15T07:44:06;8.50;95.40
51855;DHT22;37895;53.240;6.572;2023-04-15T07:46:32;8.50;95.40
51855;DHT22;37895;53.240;6.572;2023-04-15T07:48:58;8.60;95.30
51855;DHT22;37895;53.240;6.572;2023-04-15T07:51:23;8.60;95.20
51855;DHT22;37895;53.240;6.572;2023-04-15T07:53:49;8.70;95.10
51855;DHT22;37895;53.240;6.572;2023-04-15T07:56:15;8.70;94.80
51855;DHT22;37895;53.240;6.572;2023-04-15T07:58:41;8.80;94.60
51855;DHT22;37895;53.240;6.572;2023-04-15T08:01:07;8.80;94.50
51855;DHT22;37895;53.240;6.572;2023-04-15T08:03:32;8.80;94.10
51855;DHT22;37895;53.240;6.572;2023-04-15T08:05:58;8.80;93.90
51855;DHT22;37895;53.240;6.572;2023-04-15T08:08:24;8.90;93.90
51855;DHT22;37895;53.240;6.572;2023-04-15T08:10:50;8.80;93.80
51855;DHT22;37895;53.240;6.572;2023-04-15T08:13:16;8.80;94.20
51855;DHT22;37895;53.240;6.572;2023-04-15T08:15:42;8.80;94.30
51855;DHT22;37895;53.240;6.572;2023-04-15T08:18:08;8.90;93.90
51855;DHT22;37895;53.240;6.572;2023-04-15T08:20:34;8.90;93.40
51855;DHT22;37895;53.240;6.572;2023-04-15T08:22:59;8.80;93.50
51855;DHT22;37895;53.240;6.572;2023-04-15T08:25:25;8.70;93.70
51855;DHT22;37895;53.240;6.572;2023-04-15T08:27:54;8.70;93.90
51855;DHT22;37895;53.240;6.572;2023-04-15T08:30:19;8.70;93.80
51855;DHT22;37895;53.240;6.572;2023-04-15T08:32:46;8.60;93.80
51855;DHT22;37895;53.240;6.572;2023-04-15T08:35:12;8.70;93.60
51855;DHT22;37895;53.240;6.572;2023-04-15T08:37:38;8.60;93.50
51855;DHT22;37895;53.240;6.572;2023-04-15T08:40:04;8.60;93.80
51855;DHT22;37895;53.240;6.572;2023-04-15T08:42:31;8.60;93.90
51855;DHT22;37895;53.240;6.572;2023-04-15T08:45:03;8.70;93.60
51855;DHT22;37895;53.240;6.572;2023-04-15T08:47:30;8.70;93.50
51855;DHT22;37895;53.240;6.572;2023-04-15T08:49:59;8.80;92.90
51855;DHT22;37895;53.240;6.572;2023-04-15T08:52:30;8.90;92.30
51855;DHT22;37895;53.240;6.572;2023-04-15T08:54:57;8.80;92.70
51855;DHT22;37895;53.240;6.572;2023-04-15T08:57:26;8.90;92.10
51855;DHT22;37895;53.240;6.572;2023-04-15T08:59:55;8.90;92.30
51855;DHT22;37895;53.240;6.572;2023-04-15T09:02:23;8.80;92.40
51855;DHT22;37895;53.240;6.572;2023-04-15T09:04:49;8.80;92.20
51855;DHT22;37895;53.240;6.572;2023-04-15T09:07:14;8.70;92.40
51855;DHT22;37895;53.240;6.572;2023-04-15T09:09:41;8.80;92.50
51855;DHT22;37895;53.240;6.572;2023-04-15T09:12:07;8.80;92.60
51855;DHT22;37895;53.240;6.572;2023-04-15T09:14:33;8.80;92.60
51855;DHT22;37895;53.240;6.572;2023-04-15T09:17:01;8.80;92.50
51855;DHT22;37895;53.240;6.572;2023-04-15T09:19:28;8.90;92.30
51855;DHT22;37895;53.240;6.572;2023-04-15T09:21:55;9.10;91.50
51855;DHT22;37895;53.240;6.572;2023-04-15T09:24:24;9.00;91.60
51855;DHT22;37895;53.240;6.572;2023-04-15T09:26:52;9.00;91.70
51855;DHT22;37895;53.240;6.572;2023-04-15T09:29:23;9.10;91.60
51855;DHT22;37895;53.240;6.572;2023-04-15T09:31:50;9.10;91.30
51855;DHT22;37895;53.240;6.572;2023-04-15T09:34:16;9.20;91.30
51855;DHT22;37895;53.240;6.572;2023-04-15T09:39:10;9.20;91.60
51855;DHT22;37895;53.240;6.572;2023-04-15T09:41:36;9.20;91.00
51855;DHT22;37895;53.240;6.572;2023-04-15T09:44:03;9.40;90.80
51855;DHT22;37895;53.240;6.572;2023-04-15T09:46:44;9.30;90.90
51855;DHT22;37895;53.240;6.572;2023-04-15T09:49:11;9.40;91.30
51855;DHT22;37895;53.240;6.572;2023-04-15T09:51:37;9.40;91.10
51855;DHT22;37895;53.240;6.572;2023-04-15T09:54:03;9.40;90.60
51855;DHT22;37895;53.240;6.572;2023-04-15T09:56:37;9.40;90.10
51855;DHT22;37895;53.240;6.572;2023-04-15T09:59:06;9.40;90.20
51855;DHT22;37895;53.240;6.572;2023-04-15T10:01:32;9.40;90.00
51855;DHT22;37895;53.240;6.572;2023-04-15T10:03:58;9.50;89.90
51855;DHT22;37895;53.240;6.572;2023-04-15T10:06:27;9.50;90.40
51855;DHT22;37895;53.240;6.572;2023-04-15T10:08:54;9.50;90.60
51855;DHT22;37895;53.240;6.572;2023-04-15T10:11:21;9.50;90.50
51855;DHT22;37895;53.240;6.572;2023-04-15T10:13:49;9.60;90.50
51855;DHT22;37895;53.240;6.572;2023-04-15T10:16:19;9.60;90.70
51855;DHT22;37895;53.240;6.572;2023-04-15T10:18:55;9.50;91.00
51855;DHT22;37895;53.240;6.572;2023-04-15T10:21:21;9.50;91.40
51855;DHT22;37895;53.240;6.572;2023-04-15T10:23:48;9.50;91.50
51855;DHT22;37895;53.240;6.572;2023-04-15T10:26:15;9.60;91.40
51855;DHT22;37895;53.240;6.572;2023-04-15T10:28:42;9.60;91.30
51855;DHT22;37895;53.240;6.572;2023-04-15T10:31:11;9.50;91.20
51855;DHT22;37895;53.240;6.572;2023-04-15T10:33:38;9.50;91.10
51855;DHT22;37895;53.240;6.572;2023-04-15T10:36:05;9.50;91.40
51855;DHT22;37895;53.240;6.572;2023-04-15T10:38:37;9.50;91.70
51855;DHT22;37895;53.240;6.572;2023-04-15T10:41:23;9.50;91.50
51855;DHT22;37895;53.240;6.572;2023-04-15T10:43:52;9.50;91.80
51855;DHT22;37895;53.240;6.572;2023-04-15T10:46:21;9.50;91.20
51855;DHT22;37895;53.240;6.572;2023-04-15T10:48:51;9.60;90.40
51855;DHT22;37895;53.240;6.572;2023-04-15T10:51:29;9.50;90.80
51855;DHT22;37895;53.240;6.572;2023-04-15T10:53:58;9.50;91.10
51855;DHT22;37895;53.240;6.572;2023-04-15T10:56:24;9.60;91.00
51855;DHT22;37895;53.240;6.572;2023-04-15T10:58:50;9.60;91.00
51855;DHT22;37895;53.240;6.572;2023-04-15T11:01:18;9.60;90.60
51855;DHT22;37895;53.240;6.572;2023-04-15T11:03:45;9.60;90.50
51855;DHT22;37895;53.240;6.572;2023-04-15T11:06:10;9.60;90.70
51855;DHT22;37895;53.240;6.572;2023-04-15T11:08:56;9.60;90.70
51855;DHT22;37895;53.240;6.572;2023-04-15T11:14:14;9.60;90.60
51855;DHT22;37895;53.240;6.572;2023-04-15T11:16:43;9.70;90.40
51855;DHT22;37895;53.240;6.572;2023-04-15T11:19:09;9.60;90.50
51855;DHT22;37895;53.240;6.572;2023-04-15T11:21:35;9.60;90.60
51855;DHT22;37895;53.240;6.572;2023-04-15T11:24:01;9.70;90.10
51855;DHT22;37895;53.240;6.572;2023-04-15T11:26:26;9.70;90.10
51855;DHT22;37895;53.240;6.572;2023-04-15T11:28:52;9.80;90.10
51855;DHT22;37895;53.240;6.572;2023-04-15T11:31:18;9.80;90.10
51855;DHT22;37895;53.240;6.572;2023-04-15T11:33:56;9.70;90.20
51855;DHT22;37895;53.240;6.572;2023-04-15T11:36:24;9.70;90.50
51855;DHT22;37895;53.240;6.572;2023-04-15T11:38:51;9.80;90.30
51855;DHT22;37895;53.240;6.572;2023-04-15T11:41:21;9.80;90.20
51855;DHT22;37895;53.240;6.572;2023-04-15T11:43:47;9.70;90.40
51855;DHT22;37895;53.240;6.572;2023-04-15T11:46:13;9.80;90.80
51855;DHT22;37895;53.240;6.572;2023-04-15T11:48:43;9.70;90.60
51855;DHT22;37895;53.240;6.572;2023-04-15T11:51:10;9.80;90.50
51855;DHT22;37895;53.240;6.572;2023-04-15T11:56:15;9.60;90.70
51855;DHT22;37895;53.240;6.572;2023-04-15T11:58:41;9.60;90.80
51855;DHT22;37895;53.240;6.572;2023-04-15T12:01:07;9.60;90.60
51855;DHT22;37895;53.240;6.572;2023-04-15T12:03:43;9.50;91.20
51855;DHT22;37895;53.240;6.572;2023-04-15T12:06:20;9.60;91.40
51855;DHT22;37895;53.240;6.572;2023-04-15T12:11:44;9.70;90.90
51855;DHT22;37895;53.240;6.572;2023-04-15T12:14:27;9.60;91.20
51855;DHT22;37895;53.240;6.572;2023-04-15T12:19:25;9.70;91.50
51855;DHT22;37895;53.240;6.572;2023-04-15T12:21:53;9.60;91.50
51855;DHT22;37895;53.240;6.572;2023-04-15T12:24:21;9.60;91.70
51855;DHT22;37895;53.240;6.572;2023-04-15T12:26:50;9.60;91.30
51855;DHT22;37895;53.240;6.572;2023-04-15T12:29:17;9.60;91.50
51855;DHT22;37895;53.240;6.572;2023-04-15T12:31:53;9.60;91.70
51855;DHT22;37895;53.240;6.572;2023-04-15T12:34:34;9.50;92.60
51855;DHT22;37895;53.240;6.572;2023-04-15T12:37:03;9.60;92.70
51855;DHT22;37895;53.240;6.572;2023-04-15T12:39:31;9.50;92.50
51855;DHT22;37895;53.240;6.572;2023-04-15T12:41:59;9.50;92.60
51855;DHT22;37895;53.240;6.572;2023-04-15T12:44:26;9.50;93.30
51855;DHT22;37895;53.240;6.572;2023-04-15T12:46:52;9.50;93.40
51855;DHT22;37895;53.240;6.572;2023-04-15T12:49:19;9.50;93.30
51855;DHT22;37895;53.240;6.572;2023-04-15T12:51:51;9.40;93.60
51855;DHT22;37895;53.240;6.572;2023-04-15T12:54:17;9.40;93.50
51855;DHT22;37895;53.240;6.572;2023-04-15T12:56:45;9.40;93.20
51855;DHT22;37895;53.240;6.572;2023-04-15T12:59:11;9.30;93.40
51855;DHT22;37895;53.240;6.572;2023-04-15T13:01:38;9.30;93.80
51855;DHT22;37895;53.240;6.572;2023-04-15T13:04:04;9.70;94.20
51855;DHT22;37895;53.240;6.572;2023-04-15T13:06:30;9.30;93.60
51855;DHT22;37895;53.240;6.572;2023-04-15T13:08:58;9.20;93.60
51855;DHT22;37895;53.240;6.572;2023-04-15T13:11:26;9.20;94.00
51855;DHT22;37895;53.240;6.572;2023-04-15T13:13:53;9.10;94.10
51855;DHT22;37895;53.240;6.572;2023-04-15T13:16:20;9.10;94.40
51855;DHT22;37895;53.240;6.572;2023-04-15T13:18:47;9.10;94.60
51855;DHT22;37895;53.240;6.572;2023-04-15T13:21:12;9.10;94.60
51855;DHT22;37895;53.240;6.572;2023-04-15T13:23:40;9.20;95.00
51855;DHT22;37895;53.240;6.572;2023-04-15T13:26:06;9.00;95.10
51855;DHT22;37895;53.240;6.572;2023-04-15T13:28:33;8.90;95.30
51855;DHT22;37895;53.240;6.572;2023-04-15T13:30:58;8.90;95.80
51855;DHT22;37895;53.240;6.572;2023-04-15T13:33:25;8.80;96.00
51855;DHT22;37895;53.240;6.572;2023-04-15T13:35:51;8.80;96.50
51855;DHT22;37895;53.240;6.572;2023-04-15T13:38:16;8.80;96.60
51855;DHT22;37895;53.240;6.572;2023-04-15T13:40:42;8.80;96.60
51855;DHT22;37895;53.240;6.572;2023-04-15T13:43:07;8.70;96.60
51855;DHT22;37895;53.240;6.572;2023-04-15T13:45:33;8.70;96.60
51855;DHT22;37895;53.240;6.572;2023-04-15T13:47:59;8.80;96.70
51855;DHT22;37895;53.240;6.572;2023-04-15T13:50:26;8.80;96.80
51855;DHT22;37895;53.240;6.572;2023-04-15T13:56:47;8.90;96.40
51855;DHT22;37895;53.240;6.572;2023-04-15T13:59:13;8.80;96.60
51855;DHT22;37895;53.240;6.572;2023-04-15T14:01:39;8.80;96.60
51855;DHT22;37895;53.240;6.572;2023-04-15T14:04:05;8.80;96.70
51855;DHT22;37895;53.240;6.572;2023-04-15T14:06:31;8.80;96.80
51855;DHT22;37895;53.240;6.572;2023-04-15T14:08:57;8.90;96.70
51855;DHT22;37895;53.240;6.572;2023-04-15T14:11:23;8.90;96.60
51855;DHT22;37895;53.240;6.572;2023-04-15T14:13:48;8.80;96.60
51855;DHT22;37895;53.240;6.572;2023-04-15T14:16:14;8.90;96.40
51855;DHT22;37895;53.240;6.572;2023-04-15T14:18:39;9.30;96.20
51855;DHT22;37895;53.240;6.572;2023-04-15T14:21:05;8.80;96.40
51855;DHT22;37895;53.240;6.572;2023-04-15T14:23:31;8.80;96.70
51855;DHT22;37895;53.240;6.572;2023-04-15T14:25:57;8.70;96.60
51855;DHT22;37895;53.240;6.572;2023-04-15T14:28:23;8.70;96.80
51855;DHT22;37895;53.240;6.572;2023-04-15T14:30:49;8.70;96.90
51855;DHT22;37895;53.240;6.572;2023-04-15T14:33:15;8.60;96.80
51855;DHT22;37895;53.240;6.572;2023-04-15T14:35:40;8.70;97.30
51855;DHT22;37895;53.240;6.572;2023-04-15T14:38:06;8.60;97.20
51855;DHT22;37895;53.240;6.572;2023-04-15T14:40:35;8.60;97.60
51855;DHT22;37895;53.240;6.572;2023-04-15T14:43:01;8.60;97.50
51855;DHT22;37895;53.240;6.572;2023-04-15T14:45:26;8.80;97.80
51855;DHT22;37895;53.240;6.572;2023-04-15T14:47:52;8.60;97.60
51855;DHT22;37895;53.240;6.572;2023-04-15T14:50:18;8.50;97.50
51855;DHT22;37895;53.240;6.572;2023-04-15T14:52:44;8.50;97.80
51855;DHT22;37895;53.240;6.572;2023-04-15T14:55:10;8.50;97.90
51855;DHT22;37895;53.240;6.572;2023-04-15T14:57:41;8.50;97.80
51855;DHT22;37895;53.240;6.572;2023-04-15T15:00:08;8.40;98.20
51855;DHT22;37895;53.240;6.572;2023-04-15T15:02:34;8.40;97.90
51855;DHT22;37895;53.240;6.572;2023-04-15T15:05:01;8.40;98.00
51855;DHT22;37895;53.240;6.572;2023-04-15T15:07:27;8.50;98.20
51855;DHT22;37895;53.240;6.572;2023-04-15T15:09:53;8.30;98.30
51855;DHT22;37895;53.240;6.572;2023-04-15T15:12:19;8.30;98.40
51855;DHT22;37895;53.240;6.572;2023-04-15T15:14:46;8.30;98.60
51855;DHT22;37895;53.240;6.572;2023-04-15T15:17:13;8.30;98.50
51855;DHT22;37895;53.240;6.572;2023-04-15T15:19:38;8.30;98.70
51855;DHT22;37895;53.240;6.572;2023-04-15T15:22:04;8.40;98.60
51855;DHT22;37895;53.240;6.572;2023-04-15T15:24:30;8.40;98.50
51855;DHT22;37895;53.240;6.572;2023-04-15T15:26:55;8.30;98.50
51855;DHT22;37895;53.240;6.572;2023-04-15T15:29:22;8.30;98.50
51855;DHT22;37895;53.240;6.572;2023-04-15T15:31:47;8.30;98.60
51855;DHT22;37895;53.240;6.572;2023-04-15T15:34:14;8.30;98.80
51855;DHT22;37895;53.240;6.572;2023-04-15T15:36:40;8.30;98.70
51855;DHT22;37895;53.240;6.572;2023-04-15T15:39:06;8.30;98.70
51855;DHT22;37895;53.240;6.572;2023-04-15T15:41:32;8.30;98.70
51855;DHT22;37895;53.240;6.572;2023-04-15T15:43:57;8.30;98.50
51855;DHT22;37895;53.240;6.572;2023-04-15T15:46:24;8.20;98.60
51855;DHT22;37895;53.240;6.572;2023-04-15T15:48:50;8.30;98.70
51855;DHT22;37895;53.240;6.572;2023-04-15T15:51:16;8.30;98.60
51855;DHT22;37895;53.240;6.572;2023-04-15T15:53:41;8.30;98.50
51855;DHT22;37895;53.240;6.572;2023-04-15T15:56:09;8.30;98.50
51855;DHT22;37895;53.240;6.572;2023-04-15T15:58:35;8.20;98.60
51855;DHT22;37895;53.240;6.572;2023-04-15T16:01:01;8.30;98.40